Terminal Aerodrome Forecast
Issued by NWS

Home | Current Version | Previous Version | Text Only | Print | Product List | Glossary On
Versions: 1 2 3 4 5 6 7 8 9 10 11 12 13 14 15 16
000
FTUS42 KMLB 310500
TAFSFB
TAF
KSFB 310539Z 3106/0106 13005KT P6SM BKN110
     FM310800 00000KT P6SM SCT250
     FM311500 16006KT P6SM FEW030 SCT250
     FM312300 13003KT P6SM FEW250=

USA.gov is the U.S. government's official web portal to all federal, state and local government web resources and services.